KDPA

Dupage Airport

Chicago/West Chicago, Illinois, USA
METAR KDPA 171619Z 10003KT 7SM SCT014 24/21 A2995 RMK AO2 T02390206
Observed Flight Rules
Aug-17 @ 16:19 UTC (34 minutes ago) Visual Flight Rules
Wind Visibility Clouds
100° at 3 knots 7 miles
  • Scattered at 1,400' AGL
Temperatures Readings
Current 24°C / 75°F
Dewpoint 21°C / 70°F
Humidity 83%
Altimeter 29.95" Hg
Pressure 1014 hPa
Elevation 231
METAR KDPA 171619Z 10003KT 7SM SCT014 24/21 A2995 RMK AO2 T02390206
Observed Flight Rules
Aug-17 @ 16:19 UTC
(34 minutes ago)
VFR
Wind Visibility
100° at 3 knots 7 miles
Clouds
  • Scattered at 1,400' AGL
Temperature Dewpoint
24°C / 75°F 21°C / 70°F
Humidity Altimeter Pressure
83% 29.95" Hg 1014 hPa